sensor_id;sensor_type;location;lat;lon;timestamp;temperature;humidity
11446;DHT22;5779;64.178;15.432;2024-03-23T00:54:08;0.00;99.90
11446;DHT22;5779;64.178;15.432;2024-03-23T00:56:55;0.10;99.90
11446;DHT22;5779;64.178;15.432;2024-03-23T00:59:40;0.10;99.90
11446;DHT22;5779;64.178;15.432;2024-03-23T01:02:27;0.00;99.90
11446;DHT22;5779;64.178;15.432;2024-03-23T01:05:13;-0.10;99.90
11446;DHT22;5779;64.178;15.432;2024-03-23T01:08:01;-0.20;99.90
11446;DHT22;5779;64.178;15.432;2024-03-23T01:10:55;-0.30;99.90
11446;DHT22;5779;64.178;15.432;2024-03-23T01:13:42;-0.40;99.90
11446;DHT22;5779;64.178;15.432;2024-03-23T01:16:28;-0.50;99.90
11446;DHT22;5779;64.178;15.432;2024-03-23T01:19:15;-0.40;99.90
11446;DHT22;5779;64.178;15.432;2024-03-23T01:22:00;-0.40;99.90
11446;DHT22;5779;64.178;15.432;2024-03-23T01:24:47;-0.30;99.90
11446;DHT22;5779;64.178;15.432;2024-03-23T01:27:34;-0.30;99.90
11446;DHT22;5779;64.178;15.432;2024-03-23T01:30:20;-0.40;99.90
11446;DHT22;5779;64.178;15.432;2024-03-23T01:33:06;-0.30;99.90
11446;DHT22;5779;64.178;15.432;2024-03-23T01:35:53;-0.20;99.90
11446;DHT22;5779;64.178;15.432;2024-03-23T01:38:38;-0.20;99.90
11446;DHT22;5779;64.178;15.432;2024-03-23T01:41:25;-0.20;99.90
11446;DHT22;5779;64.178;15.432;2024-03-23T01:44:12;-0.30;99.90
11446;DHT22;5779;64.178;15.432;2024-03-23T01:46:58;-0.40;99.90
11446;DHT22;5779;64.178;15.432;2024-03-23T01:49:44;-0.50;99.90
11446;DHT22;5779;64.178;15.432;2024-03-23T01:52:31;-0.60;99.90
11446;DHT22;5779;64.178;15.432;2024-03-23T01:55:17;-0.60;99.90
11446;DHT22;5779;64.178;15.432;2024-03-23T01:58:04;-0.50;99.90
11446;DHT22;5779;64.178;15.432;2024-03-23T02:00:51;-0.40;99.90
11446;DHT22;5779;64.178;15.432;2024-03-23T02:03:38;-0.30;99.90
11446;DHT22;5779;64.178;15.432;2024-03-23T02:06:24;-0.30;99.90
11446;DHT22;5779;64.178;15.432;2024-03-23T02:09:11;-0.20;99.90
11446;DHT22;5779;64.178;15.432;2024-03-23T02:11:57;-0.20;99.90
11446;DHT22;5779;64.178;15.432;2024-03-23T02:14:44;-0.10;99.90
11446;DHT22;5779;64.178;15.432;2024-03-23T02:17:32;-0.20;99.90
11446;DHT22;5779;64.178;15.432;2024-03-23T02:20:19;-0.30;99.90
11446;DHT22;5779;64.178;15.432;2024-03-23T02:23:12;-0.40;99.90
11446;DHT22;5779;64.178;15.432;2024-03-23T02:25:59;-0.60;99.90
11446;DHT22;5779;64.178;15.432;2024-03-23T02:28:44;-0.60;99.90
11446;DHT22;5779;64.178;15.432;2024-03-23T02:31:31;-0.70;99.90
11446;DHT22;5779;64.178;15.432;2024-03-23T02:34:17;-0.80;99.90
11446;DHT22;5779;64.178;15.432;2024-03-23T02:37:10;-0.80;99.90
11446;DHT22;5779;64.178;15.432;2024-03-23T02:39:58;-0.90;99.90
11446;DHT22;5779;64.178;15.432;2024-03-23T02:42:45;-0.90;99.90
11446;DHT22;5779;64.178;15.432;2024-03-23T02:45:30;-0.90;99.90
11446;DHT22;5779;64.178;15.432;2024-03-23T02:48:17;-0.90;99.90
11446;DHT22;5779;64.178;15.432;2024-03-23T02:51:02;-1.00;99.90
11446;DHT22;5779;64.178;15.432;2024-03-23T02:53:49;-1.00;99.90
11446;DHT22;5779;64.178;15.432;2024-03-23T02:56:36;-1.00;99.90
11446;DHT22;5779;64.178;15.432;2024-03-23T02:59:23;-1.00;99.90
11446;DHT22;5779;64.178;15.432;2024-03-23T03:02:08;-1.00;99.90
11446;DHT22;5779;64.178;15.432;2024-03-23T03:04:55;-1.00;99.90
11446;DHT22;5779;64.178;15.432;2024-03-23T03:07:41;-1.10;99.90
11446;DHT22;5779;64.178;15.432;2024-03-23T03:10:28;-1.10;99.90
11446;DHT22;5779;64.178;15.432;2024-03-23T03:13:17;-1.10;99.90
11446;DHT22;5779;64.178;15.432;2024-03-23T03:16:03;-1.10;99.90
11446;DHT22;5779;64.178;15.432;2024-03-23T03:18:54;-1.10;99.90
11446;DHT22;5779;64.178;15.432;2024-03-23T03:21:41;-1.10;99.90
11446;DHT22;5779;64.178;15.432;2024-03-23T03:24:28;-1.10;99.90
11446;DHT22;5779;64.178;15.432;2024-03-23T03:27:13;-1.20;99.90
11446;DHT22;5779;64.178;15.432;2024-03-23T03:30:01;-1.20;99.90
11446;DHT22;5779;64.178;15.432;2024-03-23T03:32:47;-1.30;99.90
11446;DHT22;5779;64.178;15.432;2024-03-23T03:35:34;-1.40;99.90
11446;DHT22;5779;64.178;15.432;2024-03-23T03:38:20;-1.40;99.90
11446;DHT22;5779;64.178;15.432;2024-03-23T03:41:06;-1.30;99.90
11446;DHT22;5779;64.178;15.432;2024-03-23T03:43:52;-1.20;99.90
11446;DHT22;5779;64.178;15.432;2024-03-23T03:46:41;-1.20;99.90
11446;DHT22;5779;64.178;15.432;2024-03-23T03:49:27;-1.20;99.90
11446;DHT22;5779;64.178;15.432;2024-03-23T03:52:14;-1.20;99.90
11446;DHT22;5779;64.178;15.432;2024-03-23T03:55:02;-1.30;99.90
11446;DHT22;5779;64.178;15.432;2024-03-23T03:57:49;-1.60;99.90
11446;DHT22;5779;64.178;15.432;2024-03-23T04:00:35;-1.60;99.90
11446;DHT22;5779;64.178;15.432;2024-03-23T04:03:23;-1.60;99.90
11446;DHT22;5779;64.178;15.432;2024-03-23T04:06:09;-1.50;99.90
11446;DHT22;5779;64.178;15.432;2024-03-23T04:08:56;-1.50;99.90
11446;DHT22;5779;64.178;15.432;2024-03-23T04:11:41;-1.60;99.90
11446;DHT22;5779;64.178;15.432;2024-03-23T04:14:29;-1.70;99.90
11446;DHT22;5779;64.178;15.432;2024-03-23T04:17:14;-2.00;99.90
11446;DHT22;5779;64.178;15.432;2024-03-23T04:20:03;-1.80;99.90
11446;DHT22;5779;64.178;15.432;2024-03-23T04:22:50;-1.50;99.90
11446;DHT22;5779;64.178;15.432;2024-03-23T04:25:37;-1.50;99.90
11446;DHT22;5779;64.178;15.432;2024-03-23T04:28:23;-1.60;99.90
11446;DHT22;5779;64.178;15.432;2024-03-23T04:31:10;-1.80;99.90
11446;DHT22;5779;64.178;15.432;2024-03-23T04:33:55;-1.90;99.90
11446;DHT22;5779;64.178;15.432;2024-03-23T04:36:44;-2.00;99.90
11446;DHT22;5779;64.178;15.432;2024-03-23T04:39:29;-2.00;99.90
11446;DHT22;5779;64.178;15.432;2024-03-23T04:42:16;-2.40;99.90
11446;DHT22;5779;64.178;15.432;2024-03-23T04:45:04;-2.50;99.90
11446;DHT22;5779;64.178;15.432;2024-03-23T04:47:51;-2.50;99.90
11446;DHT22;5779;64.178;15.432;2024-03-23T04:50:38;-2.40;99.90
11446;DHT22;5779;64.178;15.432;2024-03-23T04:53:27;-2.10;99.90
11446;DHT22;5779;64.178;15.432;2024-03-23T04:56:14;-2.10;99.90
11446;DHT22;5779;64.178;15.432;2024-03-23T04:59:02;-2.60;99.90
11446;DHT22;5779;64.178;15.432;2024-03-23T05:01:49;-2.80;99.90
11446;DHT22;5779;64.178;15.432;2024-03-23T05:04:36;-2.80;99.90
11446;DHT22;5779;64.178;15.432;2024-03-23T05:07:22;-2.80;99.90
11446;DHT22;5779;64.178;15.432;2024-03-23T05:10:11;-2.80;99.90
11446;DHT22;5779;64.178;15.432;2024-03-23T05:13:02;-2.70;99.90
11446;DHT22;5779;64.178;15.432;2024-03-23T05:15:52;-2.30;99.90
11446;DHT22;5779;64.178;15.432;2024-03-23T05:18:38;-2.10;99.90
11446;DHT22;5779;64.178;15.432;2024-03-23T05:21:24;-2.00;99.90
11446;DHT22;5779;64.178;15.432;2024-03-23T05:24:10;-1.80;99.90
11446;DHT22;5779;64.178;15.432;2024-03-23T05:26:58;-1.90;99.90
11446;DHT22;5779;64.178;15.432;2024-03-23T05:29:44;-2.10;99.90
11446;DHT22;5779;64.178;15.432;2024-03-23T05:32:32;-2.00;99.90
11446;DHT22;5779;64.178;15.432;2024-03-23T05:35:18;-1.90;99.90
11446;DHT22;5779;64.178;15.432;2024-03-23T05:38:05;-1.90;99.90
11446;DHT22;5779;64.178;15.432;2024-03-23T05:40:55;-1.80;99.90
11446;DHT22;5779;64.178;15.432;2024-03-23T05:43:42;-1.80;99.90
11446;DHT22;5779;64.178;15.432;2024-03-23T05:46:29;-1.80;99.90
11446;DHT22;5779;64.178;15.432;2024-03-23T05:49:15;-1.70;99.90
11446;DHT22;5779;64.178;15.432;2024-03-23T05:52:03;-1.50;99.90
11446;DHT22;5779;64.178;15.432;2024-03-23T05:54:48;-1.40;99.90
11446;DHT22;5779;64.178;15.432;2024-03-23T05:57:35;-1.20;99.90
11446;DHT22;5779;64.178;15.432;2024-03-23T06:00:22;-1.10;99.90
11446;DHT22;5779;64.178;15.432;2024-03-23T06:03:12;-1.10;99.90
11446;DHT22;5779;64.178;15.432;2024-03-23T06:05:59;-1.10;99.90
11446;DHT22;5779;64.178;15.432;2024-03-23T06:08:44;-1.10;99.90
11446;DHT22;5779;64.178;15.432;2024-03-23T06:11:31;-1.10;99.90
11446;DHT22;5779;64.178;15.432;2024-03-23T06:14:17;-1.00;99.90
11446;DHT22;5779;64.178;15.432;2024-03-23T06:17:05;-1.00;99.90
11446;DHT22;5779;64.178;15.432;2024-03-23T06:19:51;-1.00;99.90
11446;DHT22;5779;64.178;15.432;2024-03-23T06:22:38;-1.00;99.90
11446;DHT22;5779;64.178;15.432;2024-03-23T06:25:24;-1.00;99.90
11446;DHT22;5779;64.178;15.432;2024-03-23T06:28:11;-1.00;99.90
11446;DHT22;5779;64.178;15.432;2024-03-23T06:30:56;-1.00;99.90
11446;DHT22;5779;64.178;15.432;2024-03-23T06:33:45;-1.00;99.90
11446;DHT22;5779;64.178;15.432;2024-03-23T06:36:32;-1.00;99.90
11446;DHT22;5779;64.178;15.432;2024-03-23T06:39:17;-1.00;99.90
11446;DHT22;5779;64.178;15.432;2024-03-23T06:42:05;-1.00;99.90
11446;DHT22;5779;64.178;15.432;2024-03-23T06:44:51;-1.00;99.90
11446;DHT22;5779;64.178;15.432;2024-03-23T06:47:37;-0.90;99.90
11446;DHT22;5779;64.178;15.432;2024-03-23T06:50:25;-1.00;99.90
11446;DHT22;5779;64.178;15.432;2024-03-23T06:53:13;-1.00;99.90
11446;DHT22;5779;64.178;15.432;2024-03-23T06:55:59;-1.00;99.90
11446;DHT22;5779;64.178;15.432;2024-03-23T06:58:46;-1.00;99.90
11446;DHT22;5779;64.178;15.432;2024-03-23T07:01:31;-1.00;99.90
11446;DHT22;5779;64.178;15.432;2024-03-23T07:04:18;-0.90;99.90
11446;DHT22;5779;64.178;15.432;2024-03-23T07:07:07;-1.00;99.90
11446;DHT22;5779;64.178;15.432;2024-03-23T07:09:53;-1.00;99.90
11446;DHT22;5779;64.178;15.432;2024-03-23T07:12:39;-0.90;99.90
11446;DHT22;5779;64.178;15.432;2024-03-23T07:15:26;-0.80;99.90
11446;DHT22;5779;64.178;15.432;2024-03-23T07:18:12;-0.70;99.90
11446;DHT22;5779;64.178;15.432;2024-03-23T07:20:59;-0.70;99.90
11446;DHT22;5779;64.178;15.432;2024-03-23T07:23:46;-0.80;99.90
11446;DHT22;5779;64.178;15.432;2024-03-23T07:26:33;-0.80;99.90
11446;DHT22;5779;64.178;15.432;2024-03-23T07:29:18;-0.70;99.90
11446;DHT22;5779;64.178;15.432;2024-03-23T07:32:05;-0.70;99.90
11446;DHT22;5779;64.178;15.432;2024-03-23T07:34:51;-0.70;99.90
11446;DHT22;5779;64.178;15.432;2024-03-23T07:37:38;-0.80;99.90
11446;DHT22;5779;64.178;15.432;2024-03-23T07:40:26;-0.80;99.90
11446;DHT22;5779;64.178;15.432;2024-03-23T07:43:12;-0.80;99.90
11446;DHT22;5779;64.178;15.432;2024-03-23T07:46:00;-0.70;99.90
11446;DHT22;5779;64.178;15.432;2024-03-23T07:48:46;-0.50;99.90
11446;DHT22;5779;64.178;15.432;2024-03-23T07:51:33;-0.40;99.90
11446;DHT22;5779;64.178;15.432;2024-03-23T07:54:20;-0.20;99.90
11446;DHT22;5779;64.178;15.432;2024-03-23T07:57:08;0.00;99.90
11446;DHT22;5779;64.178;15.432;2024-03-23T07:59:53;0.00;99.90
11446;DHT22;5779;64.178;15.432;2024-03-23T08:02:40;0.00;99.90
11446;DHT22;5779;64.178;15.432;2024-03-23T08:05:26;0.10;99.90
11446;DHT22;5779;64.178;15.432;2024-03-23T08:08:13;0.10;99.90
11446;DHT22;5779;64.178;15.432;2024-03-23T08:10:59;0.30;99.90
11446;DHT22;5779;64.178;15.432;2024-03-23T08:13:47;0.50;99.90
11446;DHT22;5779;64.178;15.432;2024-03-23T08:16:33;0.70;99.90
11446;DHT22;5779;64.178;15.432;2024-03-23T08:19:20;0.80;99.90
11446;DHT22;5779;64.178;15.432;2024-03-23T08:22:06;0.80;99.90
11446;DHT22;5779;64.178;15.432;2024-03-23T08:24:53;0.70;99.90
11446;DHT22;5779;64.178;15.432;2024-03-23T08:27:38;0.60;99.90
11446;DHT22;5779;64.178;15.432;2024-03-23T08:30:28;0.80;99.90
11446;DHT22;5779;64.178;15.432;2024-03-23T08:33:15;0.90;99.90
11446;DHT22;5779;64.178;15.432;2024-03-23T08:36:03;1.00;99.90
11446;DHT22;5779;64.178;15.432;2024-03-23T08:38:49;1.00;99.90
11446;DHT22;5779;64.178;15.432;2024-03-23T08:41:38;1.10;99.90
11446;DHT22;5779;64.178;15.432;2024-03-23T08:44:24;1.00;99.90
11446;DHT22;5779;64.178;15.432;2024-03-23T08:47:12;1.00;99.90
11446;DHT22;5779;64.178;15.432;2024-03-23T08:49:58;0.90;99.90
11446;DHT22;5779;64.178;15.432;2024-03-23T08:52:46;0.80;99.90
11446;DHT22;5779;64.178;15.432;2024-03-23T08:55:32;0.60;99.90
11446;DHT22;5779;64.178;15.432;2024-03-23T08:58:19;0.90;99.90
11446;DHT22;5779;64.178;15.432;2024-03-23T09:01:07;1.10;99.90
11446;DHT22;5779;64.178;15.432;2024-03-23T09:03:55;1.10;99.90
11446;DHT22;5779;64.178;15.432;2024-03-23T09:06:43;1.20;99.90
11446;DHT22;5779;64.178;15.432;2024-03-23T09:09:29;1.10;99.90
11446;DHT22;5779;64.178;15.432;2024-03-23T09:12:15;1.40;99.90
11446;DHT22;5779;64.178;15.432;2024-03-23T09:15:02;1.60;99.90
11446;DHT22;5779;64.178;15.432;2024-03-23T09:17:48;1.70;99.90
11446;DHT22;5779;64.178;15.432;2024-03-23T09:20:36;1.50;99.90
11446;DHT22;5779;64.178;15.432;2024-03-23T09:23:22;1.40;99.90
11446;DHT22;5779;64.178;15.432;2024-03-23T09:26:09;1.30;99.90
11446;DHT22;5779;64.178;15.432;2024-03-23T09:28:54;1.50;99.90
11446;DHT22;5779;64.178;15.432;2024-03-23T09:31:41;1.40;99.90
11446;DHT22;5779;64.178;15.432;2024-03-23T09:34:27;1.40;99.90
11446;DHT22;5779;64.178;15.432;2024-03-23T09:37:15;1.50;99.90
11446;DHT22;5779;64.178;15.432;2024-03-23T09:40:01;1.50;99.90
11446;DHT22;5779;64.178;15.432;2024-03-23T09:42:50;1.90;99.90
11446;DHT22;5779;64.178;15.432;2024-03-23T09:45:39;2.20;99.90
11446;DHT22;5779;64.178;15.432;2024-03-23T09:48:26;2.30;99.90
11446;DHT22;5779;64.178;15.432;2024-03-23T09:51:12;2.50;99.90
11446;DHT22;5779;64.178;15.432;2024-03-23T09:54:01;2.60;99.90
11446;DHT22;5779;64.178;15.432;2024-03-23T09:56:46;2.60;99.90
11446;DHT22;5779;64.178;15.432;2024-03-23T09:59:34;2.80;99.90
11446;DHT22;5779;64.178;15.432;2024-03-23T10:02:21;2.80;99.90
11446;DHT22;5779;64.178;15.432;2024-03-23T10:05:20;2.60;99.90
11446;DHT22;5779;64.178;15.432;2024-03-23T10:08:18;2.40;99.90
11446;DHT22;5779;64.178;15.432;2024-03-23T10:11:15;2.60;99.90
11446;DHT22;5779;64.178;15.432;2024-03-23T10:14:02;2.80;99.90
11446;DHT22;5779;64.178;15.432;2024-03-23T10:16:48;2.50;99.90
11446;DHT22;5779;64.178;15.432;2024-03-23T10:19:35;2.50;99.90
11446;DHT22;5779;64.178;15.432;2024-03-23T10:22:21;2.60;99.90
11446;DHT22;5779;64.178;15.432;2024-03-23T10:25:10;2.60;99.90
11446;DHT22;5779;64.178;15.432;2024-03-23T10:28:00;2.80;99.90
11446;DHT22;5779;64.178;15.432;2024-03-23T10:30:46;3.00;99.90
11446;DHT22;5779;64.178;15.432;2024-03-23T10:33:33;3.20;99.90
11446;DHT22;5779;64.178;15.432;2024-03-23T10:36:20;3.40;99.90
11446;DHT22;5779;64.178;15.432;2024-03-23T10:39:07;3.20;99.90
11446;DHT22;5779;64.178;15.432;2024-03-23T10:41:56;3.20;99.90
11446;DHT22;5779;64.178;15.432;2024-03-23T10:44:45;3.20;99.90
11446;DHT22;5779;64.178;15.432;2024-03-23T10:47:31;3.20;99.90
11446;DHT22;5779;64.178;15.432;2024-03-23T10:50:18;3.20;99.90
11446;DHT22;5779;64.178;15.432;2024-03-23T10:53:04;3.30;99.90
11446;DHT22;5779;64.178;15.432;2024-03-23T10:55:51;3.10;99.90
11446;DHT22;5779;64.178;15.432;2024-03-23T10:58:39;3.10;99.90
11446;DHT22;5779;64.178;15.432;2024-03-23T11:01:28;3.60;99.90
11446;DHT22;5779;64.178;15.432;2024-03-23T11:04:29;3.50;99.90
11446;DHT22;5779;64.178;15.432;2024-03-23T11:07:30;3.50;99.90
11446;DHT22;5779;64.178;15.432;2024-03-23T11:10:25;3.30;99.90
11446;DHT22;5779;64.178;15.432;2024-03-23T11:13:31;3.40;99.90
11446;DHT22;5779;64.178;15.432;2024-03-23T11:16:22;3.30;99.90
11446;DHT22;5779;64.178;15.432;2024-03-23T11:19:35;3.20;99.90
11446;DHT22;5779;64.178;15.432;2024-03-23T11:22:41;3.30;99.90
11446;DHT22;5779;64.178;15.432;2024-03-23T11:25:29;3.30;99.90
11446;DHT22;5779;64.178;15.432;2024-03-23T11:28:15;3.20;99.90
11446;DHT22;5779;64.178;15.432;2024-03-23T11:31:01;3.20;99.90
11446;DHT22;5779;64.178;15.432;2024-03-23T11:34:03;2.90;99.90
11446;DHT22;5779;64.178;15.432;2024-03-23T11:37:04;2.90;99.90
11446;DHT22;5779;64.178;15.432;2024-03-23T11:39:50;2.80;99.90
11446;DHT22;5779;64.178;15.432;2024-03-23T11:42:36;2.80;99.90
11446;DHT22;5779;64.178;15.432;2024-03-23T11:45:23;2.80;99.90
11446;DHT22;5779;64.178;15.432;2024-03-23T11:48:09;2.80;99.90
11446;DHT22;5779;64.178;15.432;2024-03-23T11:50:57;2.80;99.90
11446;DHT22;5779;64.178;15.432;2024-03-23T11:53:44;2.90;99.90
11446;DHT22;5779;64.178;15.432;2024-03-23T11:56:31;3.20;99.90
11446;DHT22;5779;64.178;15.432;2024-03-23T11:59:31;3.70;99.90
11446;DHT22;5779;64.178;15.432;2024-03-23T12:02:18;3.70;99.90
11446;DHT22;5779;64.178;15.432;2024-03-23T12:05:14;3.60;99.90
11446;DHT22;5779;64.178;15.432;2024-03-23T12:08:19;3.50;99.90
11446;DHT22;5779;64.178;15.432;2024-03-23T12:11:10;3.30;99.90
11446;DHT22;5779;64.178;15.432;2024-03-23T12:14:00;3.40;99.90
11446;DHT22;5779;64.178;15.432;2024-03-23T12:16:47;3.70;99.90
11446;DHT22;5779;64.178;15.432;2024-03-23T12:19:33;3.90;99.90
11446;DHT22;5779;64.178;15.432;2024-03-23T12:22:21;4.00;99.90
11446;DHT22;5779;64.178;15.432;2024-03-23T12:25:07;4.00;99.90
11446;DHT22;5779;64.178;15.432;2024-03-23T12:27:58;4.00;99.90
11446;DHT22;5779;64.178;15.432;2024-03-23T12:30:44;3.80;99.90
11446;DHT22;5779;64.178;15.432;2024-03-23T12:33:31;3.60;99.90
11446;DHT22;5779;64.178;15.432;2024-03-23T12:36:17;3.60;99.90
11446;DHT22;5779;64.178;15.432;2024-03-23T12:39:03;3.60;99.90
11446;DHT22;5779;64.178;15.432;2024-03-23T12:41:49;3.40;99.90
11446;DHT22;5779;64.178;15.432;2024-03-23T12:44:40;3.60;99.90
11446;DHT22;5779;64.178;15.432;2024-03-23T12:47:27;3.50;99.90
11446;DHT22;5779;64.178;15.432;2024-03-23T12:50:12;3.80;99.90
11446;DHT22;5779;64.178;15.432;2024-03-23T12:52:59;3.90;99.90
11446;DHT22;5779;64.178;15.432;2024-03-23T12:55:45;3.90;99.90
11446;DHT22;5779;64.178;15.432;2024-03-23T12:58:33;3.90;99.90
11446;DHT22;5779;64.178;15.432;2024-03-23T13:01:20;3.90;99.90
11446;DHT22;5779;64.178;15.432;2024-03-23T13:04:07;3.90;99.90
11446;DHT22;5779;64.178;15.432;2024-03-23T13:06:53;3.70;99.90
11446;DHT22;5779;64.178;15.432;2024-03-23T13:09:40;3.60;99.90
11446;DHT22;5779;64.178;15.432;2024-03-23T13:12:25;3.40;99.90
11446;DHT22;5779;64.178;15.432;2024-03-23T13:15:12;3.10;99.90
11446;DHT22;5779;64.178;15.432;2024-03-23T13:17:59;3.00;99.90
11446;DHT22;5779;64.178;15.432;2024-03-23T13:20:46;3.20;99.90
11446;DHT22;5779;64.178;15.432;2024-03-23T13:23:33;3.40;99.90
11446;DHT22;5779;64.178;15.432;2024-03-23T13:26:21;3.60;99.90
11446;DHT22;5779;64.178;15.432;2024-03-23T13:29:06;3.90;99.90
11446;DHT22;5779;64.178;15.432;2024-03-23T13:31:53;4.00;99.90
11446;DHT22;5779;64.178;15.432;2024-03-23T13:34:40;3.90;99.90
11446;DHT22;5779;64.178;15.432;2024-03-23T13:37:26;3.90;99.90
11446;DHT22;5779;64.178;15.432;2024-03-23T13:40:12;4.00;99.90
11446;DHT22;5779;64.178;15.432;2024-03-23T13:42:59;4.10;99.90
11446;DHT22;5779;64.178;15.432;2024-03-23T13:45:45;3.90;99.90
11446;DHT22;5779;64.178;15.432;2024-03-23T13:48:32;3.80;99.90
11446;DHT22;5779;64.178;15.432;2024-03-23T13:51:23;3.80;99.90
11446;DHT22;5779;64.178;15.432;2024-03-23T13:54:12;3.90;99.90
11446;DHT22;5779;64.178;15.432;2024-03-23T13:56:57;3.80;99.90
11446;DHT22;5779;64.178;15.432;2024-03-23T13:59:44;3.70;99.90
11446;DHT22;5779;64.178;15.432;2024-03-23T14:02:30;3.50;99.90
11446;DHT22;5779;64.178;15.432;2024-03-23T14:05:17;3.20;99.90
11446;DHT22;5779;64.178;15.432;2024-03-23T14:08:05;3.10;99.90
11446;DHT22;5779;64.178;15.432;2024-03-23T14:10:52;3.10;99.90
11446;DHT22;5779;64.178;15.432;2024-03-23T14:13:38;3.20;99.90
11446;DHT22;5779;64.178;15.432;2024-03-23T14:16:25;3.20;99.90
11446;DHT22;5779;64.178;15.432;2024-03-23T14:19:11;3.30;99.90
11446;DHT22;5779;64.178;15.432;2024-03-23T14:21:58;2.80;99.90
11446;DHT22;5779;64.178;15.432;2024-03-23T14:24:45;2.50;99.90
11446;DHT22;5779;64.178;15.432;2024-03-23T14:27:32;2.60;99.90
11446;DHT22;5779;64.178;15.432;2024-03-23T14:30:17;2.70;99.90
11446;DHT22;5779;64.178;15.432;2024-03-23T14:33:05;2.80;99.90
11446;DHT22;5779;64.178;15.432;2024-03-23T14:35:54;2.90;99.90
11446;DHT22;5779;64.178;15.432;2024-03-23T14:38:42;2.70;99.90
11446;DHT22;5779;64.178;15.432;2024-03-23T14:41:29;2.70;99.90
11446;DHT22;5779;64.178;15.432;2024-03-23T14:44:15;2.70;99.90
11446;DHT22;5779;64.178;15.432;2024-03-23T14:47:01;2.60;99.90
11446;DHT22;5779;64.178;15.432;2024-03-23T14:49:48;2.80;99.90
11446;DHT22;5779;64.178;15.432;2024-03-23T14:52:35;2.90;99.90
11446;DHT22;5779;64.178;15.432;2024-03-23T14:55:22;3.10;99.90
11446;DHT22;5779;64.178;15.432;2024-03-23T14:58:09;3.10;99.90
11446;DHT22;5779;64.178;15.432;2024-03-23T15:01:00;3.10;99.90
11446;DHT22;5779;64.178;15.432;2024-03-23T15:03:47;3.10;99.90
11446;DHT22;5779;64.178;15.432;2024-03-23T15:06:34;3.10;99.90
11446;DHT22;5779;64.178;15.432;2024-03-23T15:09:19;2.80;99.90
11446;DHT22;5779;64.178;15.432;2024-03-23T15:12:07;2.80;99.90
11446;DHT22;5779;64.178;15.432;2024-03-23T15:14:54;2.90;99.90
11446;DHT22;5779;64.178;15.432;2024-03-23T15:17:41;2.90;99.90
11446;DHT22;5779;64.178;15.432;2024-03-23T15:20:29;3.10;99.90
11446;DHT22;5779;64.178;15.432;2024-03-23T15:23:16;3.20;99.90
11446;DHT22;5779;64.178;15.432;2024-03-23T15:26:02;3.20;99.90
11446;DHT22;5779;64.178;15.432;2024-03-23T15:28:51;3.20;99.90
11446;DHT22;5779;64.178;15.432;2024-03-23T15:31:56;3.10;99.90
11446;DHT22;5779;64.178;15.432;2024-03-23T15:34:43;3.20;99.90
11446;DHT22;5779;64.178;15.432;2024-03-23T15:37:31;3.10;99.90
11446;DHT22;5779;64.178;15.432;2024-03-23T15:40:17;3.20;99.90
11446;DHT22;5779;64.178;15.432;2024-03-23T15:43:04;3.20;99.90
11446;DHT22;5779;64.178;15.432;2024-03-23T15:45:56;3.20;99.90
11446;DHT22;5779;64.178;15.432;2024-03-23T15:48:46;3.20;99.90
11446;DHT22;5779;64.178;15.432;2024-03-23T15:51:32;3.20;99.90
11446;DHT22;5779;64.178;15.432;2024-03-23T15:54:22;3.10;99.90
11446;DHT22;5779;64.178;15.432;2024-03-23T15:57:07;3.00;99.90
11446;DHT22;5779;64.178;15.432;2024-03-23T15:59:54;2.50;99.90
11446;DHT22;5779;64.178;15.432;2024-03-23T16:02:41;2.20;99.90
11446;DHT22;5779;64.178;15.432;2024-03-23T16:05:28;2.00;99.90
11446;DHT22;5779;64.178;15.432;2024-03-23T16:08:15;1.90;99.90
11446;DHT22;5779;64.178;15.432;2024-03-23T16:11:00;1.80;99.90
11446;DHT22;5779;64.178;15.432;2024-03-23T16:13:47;1.80;99.90
11446;DHT22;5779;64.178;15.432;2024-03-23T16:16:33;1.80;99.90
11446;DHT22;5779;64.178;15.432;2024-03-23T16:19:22;1.90;99.90
11446;DHT22;5779;64.178;15.432;2024-03-23T16:22:10;1.80;99.90
11446;DHT22;5779;64.178;15.432;2024-03-23T16:24:57;1.80;99.90
11446;DHT22;5779;64.178;15.432;2024-03-23T16:27:43;1.70;99.90
11446;DHT22;5779;64.178;15.432;2024-03-23T16:30:30;1.80;99.90
11446;DHT22;5779;64.178;15.432;2024-03-23T16:33:15;1.80;99.90
11446;DHT22;5779;64.178;15.432;2024-03-23T16:36:04;1.90;99.90
11446;DHT22;5779;64.178;15.432;2024-03-23T16:38:53;1.90;99.90
11446;DHT22;5779;64.178;15.432;2024-03-23T16:41:39;1.80;99.90
11446;DHT22;5779;64.178;15.432;2024-03-23T16:44:26;1.70;99.90
11446;DHT22;5779;64.178;15.432;2024-03-23T16:47:11;1.80;99.90
11446;DHT22;5779;64.178;15.432;2024-03-23T16:49:59;1.80;99.90
11446;DHT22;5779;64.178;15.432;2024-03-23T16:52:44;1.80;99.90
11446;DHT22;5779;64.178;15.432;2024-03-23T16:55:32;1.70;99.90
11446;DHT22;5779;64.178;15.432;2024-03-23T16:58:18;1.70;99.90
11446;DHT22;5779;64.178;15.432;2024-03-23T17:01:06;1.80;99.90
11446;DHT22;5779;64.178;15.432;2024-03-23T17:03:53;1.70;99.90
11446;DHT22;5779;64.178;15.432;2024-03-23T17:06:40;1.70;99.90
11446;DHT22;5779;64.178;15.432;2024-03-23T17:09:25;1.70;99.90
11446;DHT22;5779;64.178;15.432;2024-03-23T17:12:14;1.70;99.90
11446;DHT22;5779;64.178;15.432;2024-03-23T17:15:04;1.70;99.90
11446;DHT22;5779;64.178;15.432;2024-03-23T17:17:52;1.60;99.90
11446;DHT22;5779;64.178;15.432;2024-03-23T17:20:39;1.60;99.90
11446;DHT22;5779;64.178;15.432;2024-03-23T17:23:26;1.60;99.90
11446;DHT22;5779;64.178;15.432;2024-03-23T17:26:12;1.70;99.90
11446;DHT22;5779;64.178;15.432;2024-03-23T17:29:01;1.70;99.90
11446;DHT22;5779;64.178;15.432;2024-03-23T17:31:48;1.70;99.90
11446;DHT22;5779;64.178;15.432;2024-03-23T17:34:37;1.60;99.90
11446;DHT22;5779;64.178;15.432;2024-03-23T17:37:22;1.70;99.90
11446;DHT22;5779;64.178;15.432;2024-03-23T17:40:09;1.70;99.90
11446;DHT22;5779;64.178;15.432;2024-03-23T17:42:56;1.60;99.90
11446;DHT22;5779;64.178;15.432;2024-03-23T17:45:44;1.50;99.90
11446;DHT22;5779;64.178;15.432;2024-03-23T17:48:31;1.50;99.90
11446;DHT22;5779;64.178;15.432;2024-03-23T17:51:16;1.40;99.90
11446;DHT22;5779;64.178;15.432;2024-03-23T17:54:03;1.40;99.90
11446;DHT22;5779;64.178;15.432;2024-03-23T17:56:50;1.50;99.90
11446;DHT22;5779;64.178;15.432;2024-03-23T17:59:36;1.50;99.90
11446;DHT22;5779;64.178;15.432;2024-03-23T18:02:24;1.60;99.90
11446;DHT22;5779;64.178;15.432;2024-03-23T18:05:11;1.50;99.90
11446;DHT22;5779;64.178;15.432;2024-03-23T18:07:58;1.60;99.90
11446;DHT22;5779;64.178;15.432;2024-03-23T18:10:46;1.60;99.90
11446;DHT22;5779;64.178;15.432;2024-03-23T18:13:32;1.70;99.90
11446;DHT22;5779;64.178;15.432;2024-03-23T18:16:19;1.80;99.90
11446;DHT22;5779;64.178;15.432;2024-03-23T18:19:06;1.80;99.90
11446;DHT22;5779;64.178;15.432;2024-03-23T18:21:53;1.80;99.90
11446;DHT22;5779;64.178;15.432;2024-03-23T18:24:39;1.80;99.90
11446;DHT22;5779;64.178;15.432;2024-03-23T18:27:28;1.70;99.90
11446;DHT22;5779;64.178;15.432;2024-03-23T18:30:16;1.60;99.90
11446;DHT22;5779;64.178;15.432;2024-03-23T18:33:05;1.50;99.90
11446;DHT22;5779;64.178;15.432;2024-03-23T18:35:53;1.40;99.90
11446;DHT22;5779;64.178;15.432;2024-03-23T18:38:40;1.30;99.90
11446;DHT22;5779;64.178;15.432;2024-03-23T18:41:26;1.40;99.90